createdAt,value
2023-05-14T00:01:38.235Z,92.42
2023-05-14T00:04:07.641Z,91.68
2023-05-14T00:06:36.753Z,93.31
2023-05-14T00:09:06.642Z,94.26
2023-05-14T00:11:35.805Z,94.47
2023-05-14T00:14:05.066Z,95.52
2023-05-14T00:16:34.182Z,93.85
2023-05-14T00:19:03.379Z,93.58
2023-05-14T00:21:32.609Z,94.52
2023-05-14T00:24:01.740Z,95.74
2023-05-14T00:26:30.620Z,94.62
2023-05-14T00:28:59.830Z,94.51
2023-05-14T00:31:28.990Z,94.27
2023-05-14T00:33:58.696Z,94.69
2023-05-14T00:36:27.799Z,95.77
2023-05-14T00:38:56.944Z,95.12
2023-05-14T00:41:26.079Z,94.47
2023-05-14T00:43:55.227Z,94.58
2023-05-14T00:46:24.514Z,94.85
2023-05-14T00:48:54.373Z,95.11
2023-05-14T00:51:23.845Z,96.24
2023-05-14T00:53:54.341Z,96.50
2023-05-14T00:56:24.041Z,94.51
2023-05-14T00:58:53.402Z,96.28
2023-05-14T01:01:22.454Z,95.45
2023-05-14T01:03:53.707Z,96.31
2023-05-14T01:06:34.279Z,96.85
2023-05-14T01:09:19.470Z,95.99
2023-05-14T01:12:12.524Z,96.79
2023-05-14T01:15:12.822Z,96.51
2023-05-14T01:18:14.062Z,98.23
2023-05-14T01:20:44.740Z,98.32
2023-05-14T01:23:13.941Z,98.64
2023-05-14T01:25:43.284Z,97.21
2023-05-14T01:28:21.352Z,97.81
2023-05-14T01:31:07.260Z,97.76
2023-05-14T01:33:37.468Z,97.46
2023-05-14T01:36:07.304Z,97.65
2023-05-14T01:38:38.015Z,97.68
2023-05-14T01:41:07.876Z,98.36
2023-05-14T01:43:38.287Z,98.68
2023-05-14T01:46:07.414Z,98.69
2023-05-14T01:48:37.993Z,98.98
2023-05-14T01:51:07.185Z,99.45
2023-05-14T01:53:36.477Z,98.94
2023-05-14T01:56:05.972Z,99.60
2023-05-14T01:58:35.266Z,99.87
2023-05-14T02:01:04.448Z,99.97
2023-05-14T02:03:33.681Z,100.00
2023-05-14T02:06:02.922Z,100.00
2023-05-14T02:08:32.497Z,100.00
2023-05-14T02:11:01.905Z,100.00
2023-05-14T02:13:31.331Z,100.00
2023-05-14T02:16:00.656Z,100.00
2023-05-14T02:18:30.057Z,100.00
2023-05-14T02:20:59.320Z,100.00
2023-05-14T02:23:40.416Z,100.00
2023-05-14T02:26:11.575Z,100.00
2023-05-14T02:28:40.412Z,100.00
2023-05-14T02:31:09.734Z,100.00
2023-05-14T02:33:39.059Z,100.00
2023-05-14T02:36:08.735Z,100.00
2023-05-14T02:38:38.254Z,100.00
2023-05-14T02:41:07.355Z,100.00
2023-05-14T02:43:36.658Z,100.00
2023-05-14T02:46:05.827Z,100.00
2023-05-14T02:48:35.220Z,100.00
2023-05-14T02:51:04.866Z,99.96
2023-05-14T02:53:34.132Z,99.96
2023-05-14T02:56:03.716Z,100.00
2023-05-14T02:58:33.070Z,100.00
2023-05-14T03:01:02.311Z,100.00
2023-05-14T03:03:32.212Z,100.00
2023-05-14T03:06:02.156Z,100.00
2023-05-14T03:08:31.562Z,100.00
2023-05-14T03:11:00.839Z,100.00
2023-05-14T03:13:30.504Z,99.83
2023-05-14T03:15:59.771Z,99.88
2023-05-14T03:18:31.111Z,99.98
2023-05-14T03:21:01.145Z,100.00
2023-05-14T03:23:32.191Z,100.00
2023-05-14T03:26:02.430Z,100.00
2023-05-14T03:28:31.526Z,100.00
2023-05-14T03:31:02.262Z,100.00
2023-05-14T03:33:32.587Z,100.00
2023-05-14T03:36:01.690Z,100.00
2023-05-14T03:38:30.705Z,100.00
2023-05-14T03:41:00.071Z,100.00
2023-05-14T03:43:29.127Z,100.00
2023-05-14T03:45:58.550Z,100.00
2023-05-14T03:48:27.879Z,100.00
2023-05-14T03:50:57.371Z,100.00
2023-05-14T03:53:26.880Z,100.00
2023-05-14T03:55:57.101Z,100.00
2023-05-14T03:58:26.397Z,100.00
2023-05-14T04:00:55.717Z,100.00
2023-05-14T04:03:24.959Z,100.00
2023-05-14T04:05:55.330Z,100.00
2023-05-14T04:08:24.482Z,100.00
2023-05-14T04:10:53.610Z,100.00
2023-05-14T04:13:25.847Z,100.00
2023-05-14T04:15:55.015Z,100.00
2023-05-14T04:18:24.773Z,100.00
2023-05-14T04:20:54.621Z,100.00
2023-05-14T04:23:23.915Z,100.00
2023-05-14T04:25:53.031Z,100.00
2023-05-14T04:28:22.230Z,100.00
2023-05-14T04:30:51.348Z,100.00
2023-05-14T04:33:21.015Z,100.00
2023-05-14T04:35:50.145Z,100.00
2023-05-14T04:38:20.113Z,100.00
2023-05-14T04:40:49.391Z,100.00
2023-05-14T04:43:18.941Z,100.00
2023-05-14T04:45:48.327Z,100.00
2023-05-14T04:48:17.508Z,100.00
2023-05-14T04:50:46.837Z,100.00
2023-05-14T04:53:16.278Z,100.00
2023-05-14T04:55:45.579Z,100.00
2023-05-14T04:58:14.494Z,100.00
2023-05-14T05:00:43.924Z,100.00
2023-05-14T05:03:13.249Z,100.00
2023-05-14T05:05:42.448Z,99.55
2023-05-14T05:08:11.685Z,99.01
2023-05-14T05:10:40.763Z,98.42
2023-05-14T05:13:09.836Z,97.88
2023-05-14T05:15:38.976Z,97.67
2023-05-14T05:18:08.151Z,94.97
2023-05-14T05:20:37.382Z,94.45
2023-05-14T05:23:06.334Z,94.90
2023-05-14T05:25:35.330Z,93.98
2023-05-14T05:28:04.520Z,93.29
2023-05-14T05:30:33.473Z,92.71
2023-05-14T05:33:02.746Z,91.71
2023-05-14T05:35:31.725Z,91.24
2023-05-14T05:38:01.688Z,91.36
2023-05-14T05:40:30.981Z,90.93
2023-05-14T05:42:59.893Z,89.61
2023-05-14T05:45:29.055Z,88.38
2023-05-14T05:47:58.196Z,87.35
2023-05-14T05:50:27.432Z,88.87
2023-05-14T05:52:56.466Z,88.40
2023-05-14T05:55:26.289Z,86.66
2023-05-14T05:57:55.398Z,84.69
2023-05-14T06:00:24.895Z,85.77
2023-05-14T06:02:54.718Z,86.08
2023-05-14T06:05:24.057Z,85.49
2023-05-14T06:07:56.158Z,84.22
2023-05-14T06:10:25.270Z,82.69
2023-05-14T06:12:54.891Z,81.58
2023-05-14T06:15:23.942Z,82.62
2023-05-14T06:17:53.042Z,80.08
2023-05-14T06:20:22.222Z,77.61
2023-05-14T06:22:51.284Z,78.10
2023-05-14T06:25:20.582Z,78.11
2023-05-14T06:27:49.797Z,75.66
2023-05-14T06:30:18.925Z,72.32
2023-05-14T06:32:48.183Z,73.55
2023-05-14T06:35:17.208Z,69.34
2023-05-14T06:37:46.348Z,67.97
2023-05-14T06:40:18.225Z,64.60
2023-05-14T06:42:47.207Z,66.76
2023-05-14T06:45:16.233Z,65.73
2023-05-14T06:47:45.279Z,64.22
2023-05-14T06:50:14.418Z,64.68
2023-05-14T06:52:45.111Z,63.44
2023-05-14T06:55:14.484Z,63.75
2023-05-14T06:57:43.883Z,63.21
2023-05-14T07:00:14.571Z,61.66
2023-05-14T07:02:43.542Z,63.07
2023-05-14T07:05:13.714Z,62.23
2023-05-14T07:07:42.701Z,62.46
2023-05-14T07:10:12.161Z,61.76
2023-05-14T07:12:41.128Z,62.44
2023-05-14T07:15:10.638Z,63.21
2023-05-14T07:17:39.832Z,61.90
2023-05-14T07:20:09.894Z,61.46
2023-05-14T07:22:38.976Z,60.04
2023-05-14T07:25:08.492Z,60.42
2023-05-14T07:27:37.161Z,60.77
2023-05-14T07:30:07.633Z,60.20
2023-05-14T07:32:36.532Z,58.57
2023-05-14T07:35:06.421Z,59.70
2023-05-14T07:37:35.424Z,58.15
2023-05-14T07:40:05.064Z,58.35
2023-05-14T07:42:36.951Z,60.00
2023-05-14T07:45:07.253Z,58.24
2023-05-14T07:47:36.618Z,55.82
2023-05-14T07:50:06.580Z,53.23
2023-05-14T07:52:36.038Z,54.42
2023-05-14T07:55:05.311Z,53.08
2023-05-14T07:57:34.401Z,51.54
2023-05-14T08:00:04.991Z,52.94
2023-05-14T08:02:41.187Z,52.89
2023-05-14T08:05:10.710Z,53.71
2023-05-14T08:07:39.768Z,53.23
2023-05-14T08:10:09.606Z,52.08
2023-05-14T08:12:39.257Z,51.08
2023-05-14T08:15:09.694Z,49.17
2023-05-14T08:17:38.585Z,50.75
2023-05-14T08:20:10.347Z,49.05
2023-05-14T08:22:39.545Z,50.17
2023-05-14T08:25:08.832Z,49.77
2023-05-14T08:27:37.830Z,49.25
2023-05-14T08:30:07.751Z,49.53
2023-05-14T08:32:38.806Z,48.89
2023-05-14T08:35:08.597Z,47.34
2023-05-14T08:37:37.677Z,48.59
2023-05-14T08:40:08.854Z,48.41
2023-05-14T08:42:43.386Z,46.20
2023-05-14T08:45:19.966Z,46.46
2023-05-14T08:47:51.697Z,45.48
2023-05-14T08:50:22.977Z,45.33
2023-05-14T08:52:53.577Z,45.82
2023-05-14T08:55:22.913Z,45.37
2023-05-14T08:57:51.895Z,45.28
2023-05-14T09:00:21.473Z,45.45
2023-05-14T09:02:51.909Z,44.79
2023-05-14T09:05:22.441Z,44.42
2023-05-14T09:07:51.396Z,45.09
2023-05-14T09:10:22.833Z,46.21
2023-05-14T09:12:52.156Z,45.07
2023-05-14T09:15:21.388Z,43.83
2023-05-14T09:17:50.795Z,42.73
2023-05-14T09:20:20.245Z,40.69
2023-05-14T09:22:54.732Z,41.99
2023-05-14T09:25:28.697Z,40.99
2023-05-14T09:27:59.032Z,42.34
2023-05-14T09:30:28.486Z,42.14
2023-05-14T09:32:57.885Z,39.10
2023-05-14T09:35:26.822Z,37.95
2023-05-14T09:37:56.004Z,38.25
2023-05-14T09:40:25.259Z,40.20
2023-05-14T09:42:55.333Z,41.12
2023-05-14T09:45:24.690Z,38.18
2023-05-14T09:47:54.212Z,35.60
2023-05-14T09:50:23.617Z,34.19
2023-05-14T09:52:55.837Z,33.63
2023-05-14T09:55:26.533Z,32.53
2023-05-14T09:57:55.684Z,33.33
2023-05-14T10:00:25.252Z,33.44
2023-05-14T10:02:55.397Z,33.91
2023-05-14T10:05:25.177Z,33.10
2023-05-14T10:07:59.354Z,33.06
2023-05-14T10:10:30.663Z,32.41
2023-05-14T10:13:08.131Z,32.04
2023-05-14T10:15:47.460Z,32.38
2023-05-14T10:18:24.926Z,33.48
2023-05-14T10:21:04.775Z,32.30
2023-05-14T10:23:38.155Z,32.65
2023-05-14T10:26:08.785Z,32.20
2023-05-14T10:28:38.047Z,31.91
2023-05-14T10:31:10.960Z,31.42
2023-05-14T10:33:51.298Z,31.80
2023-05-14T10:36:21.114Z,30.96
2023-05-14T10:38:57.369Z,31.51
2023-05-14T10:41:27.045Z,31.56
2023-05-14T10:43:58.234Z,31.86
2023-05-14T10:46:27.688Z,30.20
2023-05-14T10:48:57.350Z,30.90
2023-05-14T10:51:26.911Z,31.20
2023-05-14T10:53:57.180Z,31.26
2023-05-14T10:56:26.389Z,31.17
2023-05-14T10:59:00.500Z,30.46
2023-05-14T11:01:29.599Z,31.22
2023-05-14T11:03:59.044Z,30.45
2023-05-14T11:06:28.532Z,30.53
2023-05-14T11:08:59.268Z,28.87
2023-05-14T11:11:28.924Z,29.59
2023-05-14T11:13:58.529Z,30.45
2023-05-14T11:16:30.985Z,29.28
2023-05-14T11:19:07.712Z,29.60
2023-05-14T11:21:37.275Z,29.09
2023-05-14T11:24:07.583Z,29.74
2023-05-14T11:26:36.798Z,28.30
2023-05-14T11:29:05.856Z,29.65
2023-05-14T11:31:35.995Z,29.35
2023-05-14T11:34:10.638Z,28.60
2023-05-14T11:36:40.200Z,28.44
2023-05-14T11:39:10.181Z,29.28
2023-05-14T11:41:46.216Z,29.00
2023-05-14T11:44:15.298Z,27.62
2023-05-14T11:46:55.811Z,28.91
2023-05-14T11:49:26.140Z,28.96
2023-05-14T11:52:00.529Z,27.99
2023-05-14T11:54:30.808Z,28.37
2023-05-14T11:57:16.534Z,29.53
2023-05-14T11:59:46.152Z,29.17
2023-05-14T12:02:19.963Z,27.42
2023-05-14T12:04:54.053Z,27.85
2023-05-14T12:07:23.083Z,26.66
2023-05-14T12:09:52.094Z,25.88
2023-05-14T12:12:23.502Z,25.92
2023-05-14T12:14:53.468Z,25.89
2023-05-14T12:17:24.270Z,26.22
2023-05-14T12:19:53.598Z,24.94
2023-05-14T12:22:23.680Z,24.73
2023-05-14T12:24:58.656Z,24.62
2023-05-14T12:27:29.930Z,24.03
2023-05-14T12:32:41.820Z,24.99
2023-05-14T12:35:11.135Z,24.73
2023-05-14T12:37:40.811Z,25.51
2023-05-14T12:40:10.551Z,26.02
2023-05-14T12:42:39.551Z,26.67
2023-05-14T12:45:09.269Z,27.84
2023-05-14T12:47:38.551Z,28.95
2023-05-14T12:50:08.669Z,26.90
2023-05-14T12:52:39.729Z,25.90
2023-05-14T12:55:10.261Z,26.25
2023-05-14T12:57:39.853Z,25.50
2023-05-14T13:00:13.897Z,25.33
2023-05-14T13:02:44.147Z,24.48
2023-05-14T13:05:13.493Z,26.62
2023-05-14T13:07:42.797Z,26.11
2023-05-14T13:10:12.226Z,25.10
2023-05-14T13:12:42.113Z,26.65
2023-05-14T13:15:12.347Z,26.38
2023-05-14T13:17:41.815Z,25.81
2023-05-14T13:20:11.553Z,24.46
2023-05-14T13:22:40.919Z,25.05
2023-05-14T13:25:10.965Z,24.05
2023-05-14T13:27:39.911Z,23.63
2023-05-14T13:30:09.656Z,23.97
2023-05-14T13:32:40.746Z,23.68
2023-05-14T13:35:12.041Z,22.76
2023-05-14T13:37:43.479Z,21.94
2023-05-14T13:40:13.315Z,22.16
2023-05-14T13:42:43.106Z,23.06
2023-05-14T13:45:13.403Z,22.69
2023-05-14T13:47:42.624Z,22.25
2023-05-14T13:50:11.854Z,23.48
2023-05-14T13:52:40.934Z,22.97
2023-05-14T13:55:10.383Z,22.89
2023-05-14T13:57:41.918Z,23.83
2023-05-14T14:00:12.024Z,24.27
2023-05-14T14:02:41.315Z,25.12
2023-05-14T14:05:10.661Z,25.05
2023-05-14T14:07:40.897Z,24.17
2023-05-14T14:10:10.704Z,23.73
2023-05-14T14:12:39.778Z,24.19
2023-05-14T14:15:09.357Z,24.67
2023-05-14T14:17:39.579Z,25.20
2023-05-14T14:20:10.726Z,25.44
2023-05-14T14:22:43.428Z,25.46
2023-05-14T14:25:13.653Z,24.26
2023-05-14T14:27:42.685Z,22.78
2023-05-14T14:30:15.848Z,23.80
2023-05-14T14:32:46.494Z,23.95
2023-05-14T14:35:18.747Z,23.70
2023-05-14T14:37:53.569Z,23.44
2023-05-14T14:40:24.236Z,23.52
2023-05-14T14:42:53.646Z,24.39
2023-05-14T14:45:23.603Z,23.09
2023-05-14T14:48:12.808Z,22.96
2023-05-14T14:50:41.979Z,23.04
2023-05-14T14:53:11.149Z,23.96
2023-05-14T14:55:40.596Z,24.34
2023-05-14T14:58:10.002Z,24.10
2023-05-14T15:00:40.510Z,24.31
2023-05-14T15:03:10.653Z,25.12
2023-05-14T15:05:40.156Z,24.97
2023-05-14T15:08:09.501Z,25.30
2023-05-14T15:10:39.185Z,25.62
2023-05-14T15:13:09.419Z,26.76
2023-05-14T15:15:38.810Z,27.10
2023-05-14T15:18:07.875Z,27.31
2023-05-14T15:20:37.594Z,26.77
2023-05-14T15:23:07.045Z,25.94
2023-05-14T15:25:36.785Z,25.69
2023-05-14T15:28:09.168Z,25.43
2023-05-14T15:30:38.486Z,24.71
2023-05-14T15:33:11.037Z,24.77
2023-05-14T15:35:40.473Z,25.51
2023-05-14T15:38:09.794Z,26.06
2023-05-14T15:40:38.720Z,26.11
2023-05-14T15:43:08.273Z,26.07
2023-05-14T15:45:37.297Z,25.75
2023-05-14T15:48:07.139Z,24.91
2023-05-14T15:50:36.438Z,25.00
2023-05-14T15:53:05.940Z,25.31
2023-05-14T15:55:35.570Z,25.39
2023-05-14T15:58:04.791Z,25.67
2023-05-14T16:00:35.490Z,25.47
2023-05-14T16:03:05.523Z,25.38
2023-05-14T16:05:34.858Z,25.60
2023-05-14T16:08:04.111Z,26.20
2023-05-14T16:10:33.234Z,26.61
2023-05-14T16:13:02.468Z,27.28
2023-05-14T16:15:31.831Z,27.52
2023-05-14T16:18:01.493Z,27.88
2023-05-14T16:20:30.945Z,27.98
2023-05-14T16:23:00.286Z,28.55
2023-05-14T16:25:31.662Z,29.43
2023-05-14T16:28:01.633Z,30.57
2023-05-14T16:30:30.827Z,30.67
2023-05-14T16:33:00.558Z,31.59
2023-05-14T16:35:30.068Z,32.06
2023-05-14T16:38:00.180Z,32.78
2023-05-14T16:40:29.701Z,33.32
2023-05-14T16:42:59.164Z,33.06
2023-05-14T16:45:28.645Z,33.30
2023-05-14T16:47:57.982Z,34.02
2023-05-14T16:50:28.588Z,34.79
2023-05-14T16:52:58.055Z,36.09
2023-05-14T16:55:27.520Z,36.31
2023-05-14T16:57:56.801Z,35.32
2023-05-14T17:00:26.700Z,36.18
2023-05-14T17:02:56.279Z,37.58
2023-05-14T17:05:25.979Z,38.57
2023-05-14T17:07:55.787Z,38.68
2023-05-14T17:10:26.795Z,38.77
2023-05-14T17:12:56.121Z,38.53
2023-05-14T17:15:42.886Z,38.79
2023-05-14T17:18:12.250Z,43.17
2023-05-14T17:20:41.497Z,40.45
2023-05-14T17:23:10.717Z,41.10
2023-05-14T17:25:40.229Z,41.91
2023-05-14T17:28:09.393Z,42.38
2023-05-14T17:30:38.587Z,42.50
2023-05-14T17:33:08.396Z,43.78
2023-05-14T17:35:37.787Z,42.92
2023-05-14T17:38:07.366Z,44.16
2023-05-14T17:40:36.772Z,43.72
2023-05-14T17:43:06.456Z,45.06
2023-05-14T17:45:46.332Z,46.39
2023-05-14T17:48:24.302Z,46.63
2023-05-14T17:50:53.870Z,47.28
2023-05-14T17:53:23.050Z,48.12
2023-05-14T17:55:52.197Z,48.09
2023-05-14T17:58:21.599Z,47.74
2023-05-14T18:00:51.369Z,48.91
2023-05-14T18:03:21.448Z,47.05
2023-05-14T18:05:51.693Z,48.63
2023-05-14T18:08:20.719Z,48.79
2023-05-14T18:10:49.792Z,49.92
2023-05-14T18:13:19.133Z,49.65
2023-05-14T18:15:48.833Z,49.10
2023-05-14T18:18:19.005Z,50.53
2023-05-14T18:20:49.706Z,50.23
2023-05-14T18:23:20.102Z,51.84
2023-05-14T18:25:49.610Z,53.95
2023-05-14T18:28:19.445Z,55.05
2023-05-14T18:30:49.970Z,52.68
2023-05-14T18:33:19.083Z,55.87
2023-05-14T18:35:48.291Z,55.92
2023-05-14T18:38:19.864Z,54.89
2023-05-14T18:40:49.715Z,55.85
2023-05-14T18:43:20.221Z,56.06
2023-05-14T18:45:49.994Z,55.07
2023-05-14T18:48:19.701Z,55.52
2023-05-14T18:50:49.395Z,57.21
2023-05-14T18:53:18.852Z,53.82
2023-05-14T18:55:49.387Z,54.89
2023-05-14T18:58:18.698Z,53.85
2023-05-14T19:00:48.004Z,55.02
2023-05-14T19:03:17.834Z,56.02
2023-05-14T19:05:47.429Z,54.96
2023-05-14T19:08:17.148Z,55.53
2023-05-14T19:10:46.705Z,56.77
2023-05-14T19:13:18.822Z,56.63
2023-05-14T19:15:48.186Z,57.31
2023-05-14T19:18:17.977Z,56.56
2023-05-14T19:20:47.206Z,54.88
2023-05-14T19:23:16.413Z,54.97
2023-05-14T19:25:45.591Z,54.51
2023-05-14T19:28:15.738Z,55.65
2023-05-14T19:30:44.895Z,55.65
2023-05-14T19:33:13.961Z,56.45
2023-05-14T19:35:43.311Z,57.23
2023-05-14T19:38:12.301Z,56.96
2023-05-14T19:40:43.653Z,57.34
2023-05-14T19:43:14.166Z,56.03
2023-05-14T19:45:43.544Z,57.68
2023-05-14T19:48:13.943Z,57.54
2023-05-14T19:50:43.393Z,58.80
2023-05-14T19:53:12.385Z,58.29
2023-05-14T19:55:41.911Z,59.87
2023-05-14T19:58:11.430Z,60.89
2023-05-14T20:00:40.240Z,58.32
2023-05-14T20:03:10.604Z,59.06
2023-05-14T20:05:40.053Z,60.55
2023-05-14T20:08:09.610Z,60.41
2023-05-14T20:10:39.246Z,60.09
2023-05-14T20:13:08.880Z,59.05
2023-05-14T20:15:39.524Z,59.44
2023-05-14T20:18:09.097Z,59.08
2023-05-14T20:20:39.792Z,59.23
2023-05-14T20:23:09.633Z,60.74
2023-05-14T20:25:38.645Z,59.81
2023-05-14T20:28:07.832Z,60.22
2023-05-14T20:30:37.563Z,61.32
2023-05-14T20:33:07.064Z,62.02
2023-05-14T20:35:36.355Z,63.75
2023-05-14T20:38:05.532Z,63.97
2023-05-14T20:40:34.744Z,63.97
2023-05-14T20:43:03.943Z,65.13
2023-05-14T20:45:33.347Z,64.90
2023-05-14T20:48:02.659Z,62.47
2023-05-14T20:50:31.892Z,62.91
2023-05-14T20:53:01.285Z,64.17
2023-05-14T20:55:30.614Z,62.73
2023-05-14T20:57:59.738Z,62.14
2023-05-14T21:00:29.076Z,62.53
2023-05-14T21:02:59.871Z,62.23
2023-05-14T21:05:29.668Z,63.47
2023-05-14T21:07:58.940Z,61.94
2023-05-14T21:10:28.236Z,62.82
2023-05-14T21:12:57.690Z,61.91
2023-05-14T21:15:27.620Z,61.36
2023-05-14T21:17:56.902Z,61.69
2023-05-14T21:20:26.454Z,61.35
2023-05-14T21:22:55.952Z,65.51
2023-05-14T21:25:25.578Z,64.07
2023-05-14T21:27:54.999Z,63.35
2023-05-14T21:30:24.060Z,63.17
2023-05-14T21:32:53.650Z,62.91
2023-05-14T21:35:23.316Z,62.89
2023-05-14T21:37:52.875Z,64.51
2023-05-14T21:40:22.061Z,62.27
2023-05-14T21:42:51.343Z,62.95
2023-05-14T21:45:22.863Z,63.13
2023-05-14T21:47:52.968Z,62.56
2023-05-14T21:50:22.472Z,61.59
2023-05-14T21:52:51.747Z,62.38
2023-05-14T21:55:20.855Z,62.20
2023-05-14T21:57:50.267Z,61.82
2023-05-14T22:00:23.603Z,62.44
2023-05-14T22:02:53.775Z,61.98
2023-05-14T22:05:23.365Z,61.82
2023-05-14T22:07:52.971Z,64.16
2023-05-14T22:10:22.259Z,65.60
2023-05-14T22:12:51.373Z,63.73
2023-05-14T22:15:20.549Z,62.78
2023-05-14T22:17:50.107Z,61.31
2023-05-14T22:20:19.641Z,60.93
2023-05-14T22:22:48.976Z,61.60
2023-05-14T22:25:18.638Z,60.75
2023-05-14T22:27:48.003Z,60.35
2023-05-14T22:30:17.167Z,59.97
2023-05-14T22:32:46.363Z,59.97
2023-05-14T22:35:15.923Z,59.69
2023-05-14T22:37:45.097Z,59.68
2023-05-14T22:40:14.922Z,59.37
2023-05-14T22:42:44.097Z,59.21
2023-05-14T22:45:13.363Z,59.12
2023-05-14T22:47:42.651Z,59.21
2023-05-14T22:50:12.013Z,59.88
2023-05-14T22:52:41.978Z,59.52
2023-05-14T22:55:11.721Z,59.14
2023-05-14T22:57:41.163Z,59.12
2023-05-14T23:00:11.714Z,59.76
2023-05-14T23:02:40.931Z,59.27
2023-05-14T23:05:10.328Z,58.91
2023-05-14T23:07:39.982Z,59.02
2023-05-14T23:10:09.800Z,59.33
2023-05-14T23:12:39.210Z,59.04
2023-05-14T23:15:08.898Z,59.04
2023-05-14T23:17:39.295Z,59.33
2023-05-14T23:20:13.484Z,59.25
2023-05-14T23:22:42.647Z,60.14
2023-05-14T23:25:11.742Z,58.81
2023-05-14T23:27:41.482Z,58.92
2023-05-14T23:30:11.386Z,59.62
2023-05-14T23:32:40.613Z,59.87
2023-05-14T23:35:10.996Z,59.24
2023-05-14T23:37:47.489Z,59.43
2023-05-14T23:40:17.430Z,59.13
2023-05-14T23:42:46.785Z,59.52
2023-05-14T23:45:16.096Z,59.89
2023-05-14T23:47:45.449Z,59.64
2023-05-14T23:50:14.444Z,59.19
2023-05-14T23:52:43.988Z,59.22
2023-05-14T23:55:13.808Z,59.25
2023-05-14T23:57:42.892Z,59.32
